Time;durP1;ratioP1;P1;durP2;ratioP2;P2;SDS_P1;SDS_P2;PMS_P1;PMS_P2;Temp;Humidity;BMP_temperature;BMP_pressure;BME280_temperature;BME280_humidity;BME280_pressure;Samples;Min_cycle;Max_cycle;Signal;HPM_P1;HPM_P2
2021/10/01 00:00:46;;;;;;;23.40;14.32;;;;;;;7.59;66.58;101003.59;5070931;28;20083;-63
2021/10/01 00:03:12;;;;;;;37.03;14.60;;;;;;;7.56;67.11;100996.88;5071524;28;20060;-62
2021/10/01 00:05:39;;;;;;;22.10;12.63;;;;;;;7.58;67.64;100994.88;5070020;28;20465;-62
2021/10/01 00:08:06;;;;;;;25.65;12.65;;;;;;;7.53;68.05;100993.75;5070913;28;20088;-62
2021/10/01 00:10:32;;;;;;;21.63;11.35;;;;;;;7.53;67.51;100993.75;5074076;28;20522;-63
2021/10/01 00:12:58;;;;;;;22.30;12.27;;;;;;;7.51;67.14;100996.59;5075226;28;20495;-65
2021/10/01 00:15:24;;;;;;;29.52;14.85;;;;;;;7.45;67.68;100992.84;5074920;28;20051;-64
2021/10/01 00:17:49;;;;;;;25.40;13.13;;;;;;;7.38;68.11;101002.47;5074557;28;20555;-64
2021/10/01 00:20:15;;;;;;;21.30;12.90;;;;;;;7.39;68.22;101000.66;5073578;28;20049;-65
2021/10/01 00:22:41;;;;;;;27.38;13.98;;;;;;;7.44;68.10;100993.00;5075091;28;20059;-64
2021/10/01 00:25:07;;;;;;;25.20;14.25;;;;;;;7.49;68.33;100993.31;5074581;28;20053;-65
2021/10/01 00:27:33;;;;;;;31.75;15.30;;;;;;;7.50;68.65;100995.78;5074515;28;20071;-64
2021/10/01 00:29:59;;;;;;;22.40;12.13;;;;;;;7.45;67.85;100992.84;5074184;28;20041;-64
2021/10/01 00:32:24;;;;;;;20.73;12.43;;;;;;;7.46;68.43;100993.66;5074363;28;20040;-62
2021/10/01 00:34:51;;;;;;;22.40;12.07;;;;;;;7.49;67.92;100996.75;5074395;28;20048;-64
2021/10/01 00:37:17;;;;;;;23.15;12.48;;;;;;;7.50;67.43;100995.78;5074328;28;20036;-64
2021/10/01 00:39:43;;;;;;;20.40;12.05;;;;;;;7.50;68.09;100995.78;5073149;28;20055;-64
2021/10/01 00:42:08;;;;;;;22.67;13.40;;;;;;;7.54;67.99;101000.69;5073315;28;20040;-63
2021/10/01 00:44:34;;;;;;;24.17;12.10;;;;;;;7.53;68.34;100991.13;5074274;28;20052;-64
2021/10/01 00:47:00;;;;;;;22.90;11.65;;;;;;;7.48;68.04;100997.75;5073179;28;20322;-63
2021/10/01 00:49:26;;;;;;;22.88;11.35;;;;;;;7.48;68.50;100989.03;5074238;28;20044;-64
2021/10/01 00:51:53;;;;;;;23.27;12.25;;;;;;;7.46;68.55;100998.94;5073013;28;20040;-63
2021/10/01 00:54:19;;;;;;;23.05;11.02;;;;;;;7.40;68.65;100992.53;5074253;28;20066;-63
2021/10/01 00:56:45;;;;;;;23.05;12.00;;;;;;;7.36;68.59;100986.00;5072924;28;20036;-63
2021/10/01 00:59:11;;;;;;;21.20;10.70;;;;;;;7.22;68.34;100984.13;5072686;28;20083;-62
2021/10/01 01:01:37;;;;;;;22.05;12.00;;;;;;;7.24;68.83;100992.69;5072449;28;20044;-64
2021/10/01 01:04:05;;;;;;;21.52;12.00;;;;;;;7.30;68.95;100988.53;5072554;28;20459;-63
2021/10/01 01:07:08;;;;;;;21.85;11.55;;;;;;;7.38;68.25;100991.06;5074124;28;20040;-63
2021/10/01 01:09:49;;;;;;;25.55;12.07;;;;;;;7.37;68.39;100984.97;5072424;28;20099;-63
2021/10/01 01:12:39;;;;;;;21.65;11.10;;;;;;;7.30;68.32;100986.69;5055977;28;20033;-63
2021/10/01 01:15:12;;;;;;;22.85;11.88;;;;;;;7.35;68.79;100996.72;5072414;28;20049;-63
2021/10/01 01:17:43;;;;;;;21.50;11.45;;;;;;;7.38;68.37;100994.56;5056001;28;20045;-63
2021/10/01 01:20:13;;;;;;;21.38;11.15;;;;;;;7.35;68.42;100986.97;5071932;28;20151;-64
2021/10/01 01:23:20;;;;;;;20.38;10.75;;;;;;;7.38;68.24;100991.91;5055406;28;20512;-63
2021/10/01 01:25:56;;;;;;;21.05;11.73;;;;;;;7.32;67.86;100994.41;5055685;28;20524;-63
2021/10/01 01:28:37;;;;;;;23.02;11.27;;;;;;;7.34;68.27;100995.06;5072557;28;20063;-63
2021/10/01 01:31:31;;;;;;;23.88;11.98;;;;;;;7.39;67.69;100996.19;5073533;28;20485;-63
2021/10/01 01:34:00;;;;;;;21.10;11.43;;;;;;;7.33;67.76;100993.44;5071956;28;20044;-63
2021/10/01 01:36:28;;;;;;;19.73;11.10;;;;;;;7.30;67.67;100993.81;5072009;28;20413;-60
2021/10/01 01:38:57;;;;;;;23.95;12.85;;;;;;;7.27;67.82;100995.78;5038895;28;20041;-64
2021/10/01 01:41:23;;;;;;;18.90;11.30;;;;;;;7.18;67.90;100999.47;5038760;28;20048;-64
2021/10/01 01:43:52;;;;;;;19.13;11.15;;;;;;;7.23;67.89;100993.66;5055291;28;20429;-63
2021/10/01 01:46:18;;;;;;;21.17;11.77;;;;;;;7.16;67.43;100984.81;5071950;28;20051;-64
2021/10/01 01:48:44;;;;;;;23.90;12.43;;;;;;;7.14;67.87;100992.91;5055245;28;20143;-63
2021/10/01 01:51:11;;;;;;;20.85;12.15;;;;;;;7.11;67.42;100990.63;5055104;28;20045;-63
2021/10/01 01:53:38;;;;;;;20.98;11.30;;;;;;;7.14;67.36;100984.16;5071616;28;20048;-63
2021/10/01 01:56:06;;;;;;;21.48;12.52;;;;;;;7.13;67.70;100990.44;5054984;28;20052;-63
2021/10/01 01:58:32;;;;;;;24.58;12.27;;;;;;;7.17;68.21;100982.00;5054980;28;20510;-63
2021/10/01 02:01:12;;;;;;;;;;;;;;;7.20;67.52;100980.81;5072038;28;20511;-60
2021/10/01 02:03:48;;;;;;;23.83;12.35;;;;;;;7.17;68.37;100981.19;5056432;28;20023;-63
2021/10/01 02:06:19;;;;;;;23.17;11.65;;;;;;;7.15;67.63;100985.84;5055239;28;20048;-63
2021/10/01 02:08:46;;;;;;;21.63;11.57;;;;;;;7.17;68.16;100983.81;5072492;28;20501;-63
2021/10/01 02:11:12;;;;;;;20.45;11.32;;;;;;;7.08;67.80;100982.25;5071517;28;20414;-63
2021/10/01 02:13:39;;;;;;;24.73;11.80;;;;;;;7.12;68.56;100980.88;5071205;28;20050;-63
2021/10/01 02:16:10;;;;;;;24.38;11.80;;;;;;;7.17;68.04;100984.63;5055449;28;20078;-63
2021/10/01 02:18:38;;;;;;;20.85;11.80;;;;;;;7.20;68.13;100981.63;5071174;28;20098;-63
2021/10/01 02:21:04;;;;;;;20.80;11.95;;;;;;;7.24;67.32;100979.50;5054567;28;20075;-64
2021/10/01 02:23:33;;;;;;;20.42;11.32;;;;;;;7.20;66.66;100979.00;5071154;28;20147;-63
2021/10/01 02:29:09;;;;;;;23.05;10.93;;;;;;;7.14;67.19;100987.63;5041462;28;20045;-63
2021/10/01 02:31:46;;;;;;;21.92;11.82;;;;;;;7.13;67.89;100991.25;5037921;28;20032;-64
2021/10/01 02:34:12;;;;;;;20.48;12.00;;;;;;;7.07;67.87;100993.78;5054154;28;20063;-63
2021/10/01 02:36:38;;;;;;;22.95;12.48;;;;;;;7.02;68.13;100987.22;5070949;28;20128;-63
2021/10/01 02:39:04;;;;;;;24.88;13.13;;;;;;;7.02;68.10;100992.47;5071041;28;20045;-63
2021/10/01 02:41:30;;;;;;;22.02;12.35;;;;;;;7.05;68.03;100991.31;5072254;28;20051;-63
2021/10/01 02:43:56;;;;;;;19.95;12.07;;;;;;;6.98;68.01;100985.13;5070610;28;20046;-63
2021/10/01 02:46:22;;;;;;;21.60;12.15;;;;;;;6.98;68.11;100990.38;5070772;28;20040;-63
2021/10/01 02:48:52;;;;;;;22.20;11.82;;;;;;;7.05;67.94;100992.13;5070516;28;20097;-62
2021/10/01 02:51:21;;;;;;;19.85;11.57;;;;;;;7.14;67.85;100992.91;5070525;28;20056;-63
2021/10/01 02:54:02;;;;;;;19.10;11.77;;;;;;;7.19;67.67;100989.75;5070500;28;20059;-63
2021/10/01 02:56:33;;;;;;;26.50;11.88;;;;;;;7.21;67.65;100987.75;5054070;28;20036;-63
2021/10/01 02:59:03;;;;;;;20.52;11.43;;;;;;;7.23;67.66;100988.38;5053810;28;20040;-62
2021/10/01 03:01:30;;;;;;;22.40;12.43;;;;;;;7.18;67.84;100994.22;5070483;28;20049;-63
2021/10/01 03:04:01;;;;;;;18.60;11.43;;;;;;;7.20;67.20;100986.91;5070114;28;20429;-64
2021/10/01 03:06:35;;;;;;;22.25;11.98;;;;;;;7.23;67.01;100989.19;5070388;28;20080;-63
2021/10/01 03:09:02;;;;;;;24.52;12.80;;;;;;;7.24;67.05;100990.88;5070341;28;20501;-64
2021/10/01 03:11:30;;;;;;;19.90;11.35;;;;;;;7.21;66.79;100991.22;5070648;28;20041;-63
2021/10/01 03:13:56;;;;;;;20.80;12.90;;;;;;;7.21;67.25;100990.41;5071391;28;20052;-63
2021/10/01 03:16:23;;;;;;;18.40;11.20;;;;;;;7.19;67.01;100990.56;5070070;28;20093;-63
2021/10/01 03:18:51;;;;;;;22.20;12.77;;;;;;;7.16;67.84;100985.63;5070095;28;20135;-63
2021/10/01 03:21:18;;;;;;;25.15;13.25;;;;;;;7.15;67.79;100993.75;5053469;28;20059;-63
2021/10/01 03:23:46;;;;;;;25.75;13.63;;;;;;;7.14;67.80;100987.63;5053533;28;20048;-63
2021/10/01 03:26:13;;;;;;;23.25;12.82;;;;;;;7.15;67.52;100996.38;5069798;28;20044;-63
2021/10/01 03:28:41;;;;;;;25.45;13.55;;;;;;;7.15;67.71;100997.19;5070092;28;20047;-62
2021/10/01 03:31:07;;;;;;;23.60;14.07;;;;;;;7.13;67.51;100998.38;5069789;28;20044;-63
2021/10/01 03:33:36;;;;;;;23.83;13.00;;;;;;;7.11;68.05;100990.63;5053679;28;20098;-62
2021/10/01 03:36:04;;;;;;;22.35;13.35;;;;;;;7.07;68.04;101004.34;5069929;28;20667;-64
2021/10/01 03:38:30;;;;;;;21.58;13.27;;;;;;;7.04;68.11;100997.59;5069872;28;20103;-63
2021/10/01 03:41:00;;;;;;;23.27;13.07;;;;;;;7.06;67.80;101000.88;5069732;28;20476;-63
2021/10/01 03:43:27;;;;;;;22.23;13.15;;;;;;;7.07;67.75;100994.59;5036592;28;20417;-63
2021/10/01 03:45:57;;;;;;;24.98;13.35;;;;;;;7.09;67.58;101005.81;5073710;28;20524;-63
2021/10/01 03:48:24;;;;;;;25.30;14.52;;;;;;;7.07;67.71;101002.53;5074011;28;20055;-63
2021/10/01 03:50:58;;;;;;;24.90;14.45;;;;;;;7.03;67.68;101007.31;5058114;28;20427;-63
2021/10/01 03:53:24;;;;;;;25.70;14.80;;;;;;;7.00;67.76;101006.81;5073608;28;20066;-63
2021/10/01 03:55:50;;;;;;;25.67;14.43;;;;;;;7.02;67.88;101003.03;5074575;28;20420;-63
2021/10/01 03:58:16;;;;;;;25.90;14.27;;;;;;;7.01;67.76;101005.84;5075030;28;20516;-62
2021/10/01 04:00:45;;;;;;;26.10;14.75;;;;;;;6.97;67.98;100994.84;5056838;28;20037;-63
2021/10/01 04:03:14;;;;;;;26.15;14.43;;;;;;;6.98;67.95;101003.56;5073662;28;20422;-63
2021/10/01 04:05:46;;;;;;;23.48;14.95;;;;;;;6.99;68.18;101003.38;5073282;28;20037;-63
2021/10/01 04:08:13;;;;;;;24.27;14.35;;;;;;;7.02;68.05;101007.47;5073446;28;20067;-63
2021/10/01 04:10:43;;;;;;;27.05;15.52;;;;;;;6.94;68.38;101004.88;5073313;28;20484;-63
2021/10/01 04:13:08;;;;;;;27.65;14.73;;;;;;;6.93;68.56;101008.53;5073425;28;20057;-63
2021/10/01 04:15:40;;;;;;;23.30;14.63;;;;;;;7.01;68.69;100998.75;5073477;28;20052;-63
2021/10/01 04:18:06;;;;;;;23.25;14.02;;;;;;;7.08;67.79;100998.88;5073462;28;20052;-62
2021/10/01 04:20:35;;;;;;;25.75;14.77;;;;;;;7.13;67.37;101003.63;5073275;28;20044;-64
2021/10/01 04:23:01;;;;;;;24.83;15.38;;;;;;;7.12;67.34;101001.97;5074719;28;20048;-64
2021/10/01 04:25:45;;;;;;;27.38;14.75;;;;;;;7.03;67.68;100994.13;5074720;28;20040;-63
2021/10/01 04:28:11;;;;;;;25.95;13.48;;;;;;;6.95;67.67;101001.28;5073171;28;20048;-63
2021/10/01 04:30:46;;;;;;;28.55;14.95;;;;;;;6.93;67.87;100998.00;5056519;28;20241;-63
2021/10/01 04:33:21;;;;;;;24.83;15.30;;;;;;;6.89;68.09;101002.78;5073128;28;20037;-63
2021/10/01 04:35:48;;;;;;;25.45;14.52;;;;;;;6.96;68.04;101008.19;5074263;28;20478;-63
2021/10/01 04:38:14;;;;;;;26.23;14.27;;;;;;;6.95;68.03;101006.56;5073009;28;20048;-63
2021/10/01 04:40:41;;;;;;;30.70;14.98;;;;;;;7.02;67.67;101010.94;5073254;28;20485;-63
2021/10/01 04:43:08;;;;;;;24.60;14.93;;;;;;;7.06;67.63;101003.53;5072892;28;20048;-63
2021/10/01 04:45:38;;;;;;;;;;;;;;;7.03;67.41;101009.97;5073316;28;20044;-63
2021/10/01 04:48:05;;;;;;;22.17;14.38;;;;;;;7.00;67.54;101004.19;5056124;28;20353;-63
2021/10/01 04:50:33;;;;;;;22.48;14.05;;;;;;;6.99;67.46;101010.47;5056299;28;20540;-62
2021/10/01 04:53:00;;;;;;;25.45;13.73;;;;;;;6.99;67.11;101013.09;5072671;28;20040;-63
2021/10/01 04:55:29;;;;;;;23.63;13.35;;;;;;;7.02;67.35;101010.94;5071337;28;20048;-65
2021/10/01 04:57:55;;;;;;;23.23;14.10;;;;;;;6.97;67.53;101000.13;5055999;28;20402;-63
2021/10/01 05:00:40;;;;;;;23.00;13.07;;;;;;;7.08;67.61;101012.06;5072541;28;20048;-63
2021/10/01 05:03:24;;;;;;;27.92;14.80;;;;;;;7.16;67.39;101003.28;5072982;28;20041;-62
2021/10/01 05:06:18;;;;;;;25.73;14.35;;;;;;;7.18;66.94;101002.13;5065049;28;20055;-63
2021/10/01 05:09:04;;;;;;;28.70;14.43;;;;;;;7.21;67.21;100999.13;5073792;28;20056;-63
2021/10/01 05:11:48;;;;;;;24.30;13.82;;;;;;;7.25;66.66;101002.22;5073942;28;20041;-63
2021/10/01 05:14:32;;;;;;;25.05;13.75;;;;;;;7.26;67.02;101003.84;5073578;28;20044;-64
2021/10/01 05:17:28;;;;;;;24.02;14.68;;;;;;;7.18;66.58;101010.03;5060889;28;20206;-63
2021/10/01 05:20:13;;;;;;;24.67;15.05;;;;;;;7.18;66.87;101011.84;5073819;28;20140;-63
2021/10/01 05:22:46;;;;;;;31.27;14.68;;;;;;;7.16;67.39;101008.56;5072450;28;20461;-63
2021/10/01 05:25:12;;;;;;;25.67;13.75;;;;;;;7.11;67.20;101002.97;5072272;28;20105;-65
2021/10/01 05:27:39;;;;;;;26.08;13.45;;;;;;;7.16;66.76;101008.56;5071888;28;20085;-63
2021/10/01 05:30:06;;;;;;;27.15;14.45;;;;;;;7.14;66.93;101000.00;5072037;28;20090;-64
2021/10/01 05:32:34;;;;;;;27.20;14.45;;;;;;;7.22;66.40;101013.13;5073647;28;20047;-62
2021/10/01 05:35:01;;;;;;;22.42;14.20;;;;;;;7.29;66.28;101011.41;5073002;28;20055;-64
2021/10/01 05:37:28;;;;;;;29.02;15.43;;;;;;;7.30;66.42;101018.34;5073611;28;20091;-63
2021/10/01 05:39:54;;;;;;;24.10;13.95;;;;;;;7.34;66.07;101019.63;5071930;28;20076;-64
2021/10/01 05:42:20;;;;;;;34.88;15.38;;;;;;;7.37;66.16;101011.38;5071784;28;20045;-65
2021/10/01 05:44:46;;;;;;;26.67;15.13;;;;;;;7.33;66.77;101007.44;5071884;28;20048;-63
2021/10/01 05:47:30;;;;;;;26.27;14.73;;;;;;;7.32;66.49;101007.63;5073419;28;20290;-63
2021/10/01 05:50:15;;;;;;;23.38;14.45;;;;;;;7.37;66.15;101015.81;5071368;28;20048;-63
2021/10/01 05:53:05;;;;;;;25.27;14.63;;;;;;;7.39;65.77;101011.22;5072979;28;20131;-64
2021/10/01 05:56:08;;;;;;;31.98;16.38;;;;;;;7.35;65.76;101009.91;5030442;28;20144;-63
2021/10/01 05:58:52;;;;;;;28.17;16.02;;;;;;;7.34;66.40;101011.72;5069718;28;20056;-63
2021/10/01 06:01:18;;;;;;;24.02;14.10;;;;;;;7.36;66.37;101017.66;5054930;28;20043;-63
2021/10/01 06:03:44;;;;;;;27.20;15.18;;;;;;;7.48;65.75;101015.41;5054965;28;20056;-63
2021/10/01 06:06:10;;;;;;;25.38;13.77;;;;;;;7.57;65.00;101024.09;5072655;28;20036;-63
2021/10/01 06:08:37;;;;;;;25.48;15.07;;;;;;;7.57;65.07;101018.81;5070701;28;20060;-63
2021/10/01 06:11:03;;;;;;;22.88;13.23;;;;;;;7.62;64.40;101025.19;5072589;28;20044;-63
2021/10/01 06:13:29;;;;;;;23.73;14.20;;;;;;;7.56;64.47;101019.78;5054361;28;20123;-61
2021/10/01 06:15:55;;;;;;;25.85;14.30;;;;;;;7.57;64.76;101029.38;5070852;28;20093;-64
2021/10/01 06:18:20;;;;;;;24.92;14.70;;;;;;;7.53;65.02;101023.63;5072218;28;20045;-63
2021/10/01 06:20:46;;;;;;;25.42;14.35;;;;;;;7.58;65.09;101028.34;5071004;28;20044;-63
2021/10/01 06:23:12;;;;;;;24.42;14.00;;;;;;;7.68;65.04;101028.94;5071267;28;20036;-63
2021/10/01 06:25:38;;;;;;;22.00;13.20;;;;;;;7.72;64.06;101025.75;5068479;28;20441;-63
2021/10/01 06:28:04;;;;;;;25.13;14.77;;;;;;;7.67;64.14;101029.94;5068392;28;20037;-63
2021/10/01 06:30:30;;;;;;;22.92;13.52;;;;;;;7.66;64.33;101028.31;5069513;28;20043;-64
2021/10/01 06:32:57;;;;;;;28.33;14.80;;;;;;;7.73;64.32;101026.56;5070367;28;20105;-63
2021/10/01 06:35:23;;;;;;;30.50;15.07;;;;;;;7.71;63.66;101029.41;5068973;28;20060;-63
2021/10/01 06:37:48;;;;;;;24.17;13.77;;;;;;;7.85;62.69;101026.97;5068412;28;20036;-63
2021/10/01 06:40:14;;;;;;;26.55;12.35;;;;;;;7.94;62.67;101033.81;5067537;28;20098;-64
2021/10/01 06:42:46;;;;;;;24.38;13.80;;;;;;;8.01;62.15;101026.81;5065565;28;20082;-63
2021/10/01 06:45:17;;;;;;;24.40;12.98;;;;;;;8.11;62.66;101031.84;5067394;28;20047;-63
2021/10/01 06:48:05;;;;;;;23.15;12.73;;;;;;;8.17;62.06;101031.91;5069024;28;20040;-63
2021/10/01 08:20:30;;;;;;;19.23;12.10;;;;;;;8.78;57.76;101039.69;5062857;28;20049;-64
2021/10/01 08:22:56;;;;;;;21.10;11.10;;;;;;;8.78;57.98;101038.88;5067305;28;20549;-64
2021/10/01 08:25:22;;;;;;;20.42;12.15;;;;;;;8.66;57.14;101038.53;5065033;28;20185;-65
2021/10/01 08:27:48;;;;;;;21.42;11.60;;;;;;;8.65;58.12;101036.88;5065059;28;20401;-63
2021/10/01 08:30:14;;;;;;;23.65;11.90;;;;;;;8.62;57.88;101031.97;5066613;28;20078;-64
2021/10/01 08:32:41;;;;;;;24.55;12.27;;;;;;;8.69;58.06;101045.25;5070005;28;20079;-64
2021/10/01 08:35:08;;;;;;;21.83;12.75;;;;;;;8.63;57.51;101039.69;5069354;28;20326;-64
2021/10/01 08:37:35;;;;;;;19.58;12.38;;;;;;;8.65;57.64;101042.19;5068252;28;20044;-64
2021/10/01 08:40:02;;;;;;;23.92;12.75;;;;;;;8.68;57.70;101048.88;5068273;28;20066;-64
2021/10/01 08:42:55;;;;;;;24.48;12.70;;;;;;;8.69;58.09;101040.78;5066140;28;20498;-63
2021/10/01 08:45:23;;;;;;;21.73;12.57;;;;;;;8.58;57.93;101046.53;5066346;28;20045;-63
2021/10/01 08:47:50;;;;;;;26.20;11.77;;;;;;;8.47;58.61;101039.06;5069327;28;20052;-63
2021/10/01 08:50:21;;;;;;;19.13;12.23;;;;;;;8.48;58.67;101044.19;5068729;28;20041;-63
2021/10/01 08:52:50;;;;;;;22.80;13.23;;;;;;;8.43;59.35;101043.91;5012755;28;20040;-63
2021/10/01 08:55:16;;;;;;;22.77;12.68;;;;;;;8.57;59.12;101044.91;5070771;28;20505;-64
2021/10/01 08:57:42;;;;;;;19.92;12.43;;;;;;;8.67;58.22;101042.78;5072244;28;20041;-64
2021/10/01 09:00:12;;;;;;;26.45;14.55;;;;;;;8.74;58.72;101038.41;5055518;28;20055;-64
2021/10/01 09:02:40;;;;;;;33.53;13.60;;;;;;;8.73;59.04;101042.06;5073195;28;20040;-62
2021/10/01 09:05:08;;;;;;;23.60;12.80;;;;;;;8.69;58.12;101043.44;5071493;28;20421;-63
2021/10/01 09:07:34;;;;;;;19.20;11.52;;;;;;;8.65;58.77;101042.19;5073244;28;20517;-63
2021/10/01 09:10:00;;;;;;;27.80;13.90;;;;;;;8.60;58.93;101049.84;5073410;28;20143;-63
2021/10/01 09:12:26;;;;;;;23.85;12.43;;;;;;;8.58;59.15;101042.06;5073676;28;20044;-62
2021/10/01 09:14:56;;;;;;;19.98;12.73;;;;;;;8.49;58.83;101037.88;5073347;28;20044;-63
2021/10/01 09:17:27;;;;;;;24.83;13.25;;;;;;;8.43;59.45;101043.09;5072162;28;20444;-63
2021/10/01 09:19:54;;;;;;;22.25;12.63;;;;;;;8.24;59.61;101045.25;5068615;28;20037;-63
2021/10/01 09:22:37;;;;;;;23.10;12.85;;;;;;;8.32;59.65;101037.22;5070571;28;20516;-63
2021/10/01 09:25:17;;;;;;;19.83;11.60;;;;;;;8.36;59.14;101042.97;5073009;28;20056;-62
2021/10/01 09:27:46;;;;;;;19.17;11.85;;;;;;;8.44;58.68;101045.53;5071918;28;20524;-62
2021/10/01 09:30:15;;;;;;;17.67;11.70;;;;;;;8.48;58.35;101041.53;5073263;28;20452;-63
2021/10/01 09:32:42;;;;;;;20.92;13.02;;;;;;;8.43;58.33;101043.09;5072771;28;20047;-63
2021/10/01 09:35:12;;;;;;;21.05;12.70;;;;;;;8.44;59.25;101044.72;5072333;28;20118;-62
2021/10/01 09:37:45;;;;;;;24.60;13.38;;;;;;;8.49;59.00;101040.53;5031554;28;20312;-63
2021/10/01 09:40:11;;;;;;;20.88;12.85;;;;;;;8.56;58.27;101043.25;5050249;28;20075;-62
2021/10/01 09:42:44;;;;;;;24.50;13.20;;;;;;;8.57;59.07;101047.56;5052244;28;20040;-63
2021/10/01 09:45:11;;;;;;;24.35;13.25;;;;;;;8.65;58.03;101042.19;5053013;28;20041;-64
2021/10/01 09:47:41;;;;;;;18.75;11.88;;;;;;;8.71;58.13;101038.78;5053137;28;20055;-64
2021/10/01 09:50:30;;;;;;;20.65;12.73;;;;;;;8.75;58.58;101047.16;5052986;28;20140;-63
2021/10/01 09:52:59;;;;;;;25.02;13.80;;;;;;;8.73;58.59;101041.25;5052848;28;20040;-63
2021/10/01 09:55:38;;;;;;;22.08;14.30;;;;;;;8.71;59.05;101045.91;5052498;28;20532;-63
2021/10/01 09:58:05;;;;;;;26.95;15.57;;;;;;;8.66;58.80;101043.81;5051168;28;20489;-63
2021/10/01 10:00:42;;;;;;;23.40;13.98;;;;;;;8.58;58.92;101036.78;5052493;28;20041;-63
2021/10/01 10:03:13;;;;;;;24.30;13.90;;;;;;;8.56;59.13;101037.97;5052382;28;20051;-63
2021/10/01 10:05:55;;;;;;;25.45;14.70;;;;;;;8.47;59.87;101044.34;5051986;28;20064;-65
2021/10/01 10:08:28;;;;;;;21.65;13.23;;;;;;;8.47;59.55;101045.19;5052371;28;20105;-62
2021/10/01 10:10:56;;;;;;;22.17;13.52;;;;;;;8.46;59.20;101040.91;5050894;28;20215;-64
2021/10/01 10:13:48;;;;;;;23.52;12.27;;;;;;;8.46;58.85;101040.91;5052373;28;20052;-63
2021/10/01 10:16:20;;;;;;;20.83;12.55;;;;;;;8.52;58.90;101044.63;5042979;28;20565;-62
2021/10/01 10:18:50;;;;;;;23.55;14.15;;;;;;;8.40;59.60;101044.28;5046708;28;20540;-62
2021/10/01 10:21:16;;;;;;;26.50;14.82;;;;;;;8.29;60.00;101047.31;5045278;28;20223;-63
2021/10/01 10:23:42;;;;;;;23.88;13.95;;;;;;;8.27;60.01;101042.25;5047929;28;20702;-62
2021/10/01 10:26:09;;;;;;;23.15;13.48;;;;;;;8.28;60.16;101040.41;5047821;28;20135;-62
2021/10/01 10:28:37;;;;;;;23.35;14.52;;;;;;;8.28;60.17;101041.22;5047990;28;20123;-63
2021/10/01 10:31:03;;;;;;;23.55;14.02;;;;;;;8.26;60.15;101032.66;5046559;28;20137;-61
2021/10/01 10:33:50;;;;;;;23.52;13.43;;;;;;;8.36;60.40;101041.16;5047465;28;20084;-63
2021/10/01 10:36:44;;;;;;;20.98;12.90;;;;;;;8.47;59.90;101039.91;5056229;28;20502;-64
2021/10/01 10:39:10;;;;;;;26.65;14.00;;;;;;;8.53;60.22;101047.09;5044989;28;20127;-62
2021/10/01 10:41:37;;;;;;;23.20;12.77;;;;;;;8.60;59.78;101044.53;5045284;28;20243;-62
2021/10/01 10:44:03;;;;;;;66.25;17.55;;;;;;;8.64;59.58;101046.63;5061478;28;20051;-62
2021/10/01 10:46:35;;;;;;;24.23;12.82;;;;;;;8.58;58.53;101050.00;5066091;28;20038;-62
2021/10/01 10:49:21;;;;;;;26.15;13.93;;;;;;;8.46;58.85;101051.47;5067883;28;20067;-63
2021/10/01 10:52:08;;;;;;;25.58;12.82;;;;;;;8.29;58.96;101045.50;5065751;28;20044;-64
2021/10/01 10:54:36;;;;;;;18.33;11.77;;;;;;;8.29;59.02;101040.22;5067648;28;20056;-63
2021/10/01 10:57:17;;;;;;;20.65;12.32;;;;;;;8.35;58.82;101034.22;5067993;28;20044;-63
2021/10/01 10:59:45;;;;;;;20.45;11.93;;;;;;;8.50;58.12;101043.97;5064164;28;20131;-62
2021/10/01 11:05:27;;;;;;;18.00;11.05;;;;;;;8.47;58.06;101039.91;5042982;28;20327;-61
2021/10/01 11:08:00;;;;;;;18.38;10.93;;;;;;;8.52;58.00;101034.88;5059260;28;20048;-62
2021/10/01 11:10:46;;;;;;;20.75;11.27;;;;;;;8.61;57.64;101041.69;5056775;28;20136;-62
2021/10/01 11:13:23;;;;;;;20.83;12.18;;;;;;;8.69;58.32;101043.44;5057535;28;20071;-62
2021/10/01 11:16:08;;;;;;;18.13;10.95;;;;;;;8.58;58.82;101035.97;5055988;28;20789;-62
2021/10/01 11:19:04;;;;;;;22.48;10.93;;;;;;;8.55;58.66;101036.34;5058028;28;20041;-60
2021/10/01 11:21:33;;;;;;;16.83;10.50;;;;;;;8.63;59.10;101036.25;5056289;28;20114;-63
2021/10/01 11:24:22;;;;;;;17.42;10.00;;;;;;;8.66;59.08;101043.81;5069295;28;20094;-62
2021/10/01 11:26:48;;;;;;;17.60;10.17;;;;;;;8.73;58.49;101030.66;5068925;28;20044;-62
2021/10/01 11:29:20;;;;;;;14.80;9.30;;;;;;;8.84;58.28;101041.59;5070154;28;20048;-62
2021/10/01 11:31:46;;;;;;;13.35;8.48;;;;;;;8.86;58.71;101029.00;5069397;28;20076;-62
2021/10/01 11:34:12;;;;;;;18.35;9.50;;;;;;;8.87;57.61;101035.91;5070037;28;20082;-62
2021/10/01 11:36:39;;;;;;;16.20;9.07;;;;;;;8.96;58.03;101041.09;5068522;28;20489;-62
2021/10/01 11:39:15;;;;;;;21.70;9.15;;;;;;;8.97;57.14;101034.81;5069731;28;20537;-63
2021/10/01 11:41:41;;;;;;;18.20;10.13;;;;;;;8.86;57.63;101029.00;5067199;28;20043;-63
2021/10/01 11:44:08;;;;;;;15.45;9.98;;;;;;;8.82;57.48;101030.38;5070035;28;20110;-62
2021/10/01 11:46:40;;;;;;;18.67;10.18;;;;;;;8.87;57.46;101027.19;5067463;28;20040;-63
2021/10/01 11:49:14;;;;;;;15.68;9.38;;;;;;;8.88;57.21;101026.16;5068529;28;20050;-64
2021/10/01 11:51:40;;;;;;;18.92;9.30;;;;;;;8.88;57.59;101023.50;5068287;28;20090;-64
2021/10/01 11:54:11;;;;;;;18.92;8.98;;;;;;;8.92;57.52;101018.69;5068128;28;20552;-63
2021/10/01 11:56:38;;;;;;;14.35;8.77;;;;;;;8.96;57.45;101017.31;5067959;28;20429;-62
2021/10/01 11:59:04;;;;;;;16.50;9.05;;;;;;;9.02;57.27;101016.56;5070162;28;20052;-63
2021/10/01 12:01:30;;;;;;;15.27;9.50;;;;;;;8.85;57.77;101011.50;5068074;28;20040;-63
2021/10/01 12:03:57;;;;;;;15.82;8.68;;;;;;;8.75;58.33;101008.31;5069615;28;20049;-63
2021/10/01 12:06:25;;;;;;;18.15;9.13;;;;;;;8.71;57.12;101011.53;5071949;28;20405;-62
2021/10/01 12:09:05;;;;;;;17.80;9.85;;;;;;;8.78;56.94;101015.88;5072850;28;20451;-62
2021/10/01 12:11:37;;;;;;;17.35;9.35;;;;;;;8.68;58.16;101015.38;5035350;28;20498;-62
2021/10/01 12:14:12;;;;;;;14.80;8.55;;;;;;;8.57;58.44;101008.72;5070745;28;20068;-62
2021/10/01 12:16:39;;;;;;;19.92;9.70;;;;;;;8.62;58.03;101006.34;5066914;28;20051;-63
2021/10/01 12:19:06;;;;;;;21.42;8.88;;;;;;;8.75;57.57;101003.03;5033659;28;20084;-62
2021/10/01 12:21:35;;;;;;;17.58;8.38;;;;;;;8.84;57.39;101003.75;5051941;28;20082;-61
2021/10/01 12:24:13;;;;;;;17.15;8.32;;;;;;;8.89;58.08;101000.56;5050546;28;20502;-61
2021/10/01 12:26:39;;;;;;;20.33;9.02;;;;;;;8.87;57.55;101004.19;5050958;28;20048;-62
2021/10/01 12:29:17;;;;;;;16.35;9.40;;;;;;;8.90;57.03;100997.72;5050963;28;20128;-63
2021/10/01 12:31:50;;;;;;;15.00;8.77;;;;;;;8.85;57.59;100998.28;5049733;28;20453;-62
2021/10/01 12:34:23;;;;;;;17.85;8.75;;;;;;;8.81;58.04;100999.66;5051199;28;20047;-63
2021/10/01 12:36:52;;;;;;;16.58;8.80;;;;;;;8.82;57.42;100995.16;5049639;28;20441;-61
2021/10/01 12:39:18;;;;;;;14.70;8.70;;;;;;;8.83;57.49;100992.34;5049515;28;20037;-61
2021/10/01 12:41:44;;;;;;;14.43;8.48;;;;;;;8.84;57.79;100988.69;5053685;28;20037;-62
2021/10/01 12:44:16;;;;;;;16.42;8.65;;;;;;;8.87;57.12;100990.97;5069810;28;20608;-63
2021/10/01 12:46:50;;;;;;;14.88;9.02;;;;;;;8.83;58.14;100986.25;5068594;28;20508;-62
2021/10/01 12:49:24;;;;;;;19.15;8.90;;;;;;;8.72;58.46;100984.09;5071397;28;20048;-63
2021/10/01 12:52:09;;;;;;;18.17;8.43;;;;;;;8.73;57.82;100983.88;5068617;28;20439;-64
2021/10/01 12:54:44;;;;;;;21.70;9.57;;;;;;;8.64;57.97;100983.19;5069639;28;20548;-64
2021/10/01 12:57:19;;;;;;;15.68;10.18;;;;;;;8.63;57.92;100984.19;5070382;28;20032;-63
2021/10/01 12:59:47;;;;;;;16.17;8.52;;;;;;;8.64;57.35;100979.72;5063767;28;20041;-64
2021/10/01 13:02:17;;;;;;;17.17;10.25;;;;;;;8.68;57.77;100982.81;5058316;28;20067;-64
2021/10/01 13:04:46;;;;;;;15.48;8.38;;;;;;;8.62;57.04;100979.09;5059081;28;20044;-64
2021/10/01 13:07:35;;;;;;;18.88;9.55;;;;;;;8.54;57.44;100979.19;5061363;28;20421;-64
2021/10/01 13:10:13;;;;;;;14.90;8.70;;;;;;;8.49;57.67;100976.28;5059639;28;20049;-63
2021/10/01 13:12:50;;;;;;;16.67;9.18;;;;;;;8.53;57.97;100975.75;5032659;28;20461;-64